createdAt,value
2023-05-02T00:02:56.958Z,7.99
2023-05-02T00:06:22.164Z,7.99
2023-05-02T00:10:20.791Z,7.98
2023-05-02T00:14:07.036Z,7.97
2023-05-02T00:17:33.678Z,7.94
2023-05-02T00:21:29.033Z,7.91
2023-05-02T00:25:15.537Z,7.88
2023-05-02T00:29:01.810Z,7.87
2023-05-02T00:32:46.069Z,7.85
2023-05-02T00:36:19.174Z,7.82
2023-05-02T00:39:50.198Z,7.81
2023-05-02T00:43:45.136Z,7.78
2023-05-02T00:53:53.570Z,7.69
2023-05-02T00:57:17.971Z,7.69
2023-05-02T01:01:12.547Z,7.70
2023-05-02T01:05:13.552Z,7.70
2023-05-02T01:09:34.238Z,7.71
2023-05-02T01:13:25.548Z,7.71
2023-05-02T01:17:13.635Z,7.72
2023-05-02T01:20:41.920Z,7.72
2023-05-02T01:24:48.263Z,7.77
2023-05-02T01:28:27.217Z,7.84
2023-05-02T01:32:19.649Z,7.92
2023-05-02T01:35:46.512Z,7.93
2023-05-02T01:39:25.014Z,7.94
2023-05-02T01:43:23.044Z,7.94
2023-05-02T01:47:08.885Z,7.92
2023-05-02T01:50:54.266Z,7.89
2023-05-02T01:54:21.802Z,7.87
2023-05-02T01:58:02.214Z,7.84
2023-05-02T02:01:56.108Z,7.82
2023-05-02T02:05:22.683Z,7.79
2023-05-02T02:09:17.696Z,7.76
2023-05-02T02:12:51.606Z,7.73
2023-05-02T02:16:41.763Z,7.69
2023-05-02T02:20:29.685Z,7.67
2023-05-02T02:23:57.837Z,7.64
2023-05-02T02:27:33.386Z,7.61
2023-05-02T02:31:09.824Z,7.60
2023-05-02T02:35:06.619Z,7.63
2023-05-02T02:39:00.210Z,7.68
2023-05-02T02:43:14.802Z,7.72
2023-05-02T02:47:36.756Z,7.77
2023-05-02T02:51:29.326Z,7.85
2023-05-02T02:55:37.474Z,7.92
2023-05-02T02:59:28.853Z,7.99
2023-05-02T03:02:55.158Z,8.07
2023-05-02T03:06:50.978Z,8.15
2023-05-02T03:10:16.589Z,8.20
2023-05-02T03:13:53.767Z,8.24
2023-05-02T03:17:32.474Z,8.23
2023-05-02T03:21:09.155Z,8.21
2023-05-02T03:24:47.289Z,8.20
2023-05-02T03:28:24.370Z,8.16
2023-05-02T03:32:03.518Z,8.09
2023-05-02T03:35:58.591Z,8.07
2023-05-02T03:39:23.380Z,8.05
2023-05-02T03:43:00.776Z,8.04
2023-05-02T03:46:38.800Z,8.05
2023-05-02T03:50:19.178Z,8.10
2023-05-02T03:53:54.806Z,8.15
2023-05-02T03:57:50.467Z,8.20
2023-05-02T04:01:33.801Z,8.27
2023-05-02T04:05:18.288Z,8.38
2023-05-02T04:08:46.306Z,8.49
2023-05-02T04:12:23.881Z,8.63
2023-05-02T04:16:20.718Z,8.77
2023-05-02T04:19:45.291Z,8.88
2023-05-02T04:23:41.785Z,8.98
2023-05-02T04:27:07.740Z,9.06
2023-05-02T04:30:44.547Z,9.11
2023-05-02T04:34:22.411Z,9.17
2023-05-02T04:38:21.731Z,9.24
2023-05-02T04:42:07.244Z,9.33
2023-05-02T04:45:40.047Z,9.41
2023-05-02T04:49:15.572Z,9.48
2023-05-02T04:52:53.710Z,9.55
2023-05-02T04:56:30.906Z,9.65
2023-05-02T05:00:09.495Z,9.74
2023-05-02T05:03:46.344Z,9.84
2023-05-02T05:07:42.971Z,9.97
2023-05-02T05:11:28.756Z,10.09
2023-05-02T05:14:57.601Z,10.23
2023-05-02T05:18:53.504Z,10.39
2023-05-02T05:22:19.939Z,10.54
2023-05-02T05:26:16.045Z,10.69
2023-05-02T05:30:04.081Z,10.83
2023-05-02T05:33:29.381Z,10.97
2023-05-02T05:37:27.845Z,11.10
2023-05-02T05:41:15.088Z,11.26
2023-05-02T05:45:03.530Z,11.42
2023-05-02T05:48:46.956Z,11.62
2023-05-02T05:52:30.763Z,11.81
2023-05-02T05:56:17.892Z,12.01
2023-05-02T06:00:11.089Z,12.23
2023-05-02T06:03:43.427Z,12.47
2023-05-02T06:07:21.108Z,12.68
2023-05-02T06:11:17.791Z,12.88
2023-05-02T06:14:42.241Z,13.06
2023-05-02T06:18:38.756Z,13.27
2023-05-02T06:22:06.625Z,13.44
2023-05-02T06:26:03.545Z,13.60
2023-05-02T06:29:27.738Z,13.74
2023-05-02T06:33:26.442Z,13.84
2023-05-02T06:37:10.408Z,13.98
2023-05-02T06:40:54.190Z,14.14
2023-05-02T06:44:25.525Z,14.26
2023-05-02T06:48:15.036Z,14.39
2023-05-02T06:51:39.697Z,14.53
2023-05-02T06:55:37.822Z,14.70
2023-05-02T06:59:21.961Z,14.95
2023-05-02T07:02:47.995Z,15.17
2023-05-02T07:06:24.594Z,15.30
2023-05-02T07:10:20.688Z,15.43
2023-05-02T07:13:46.585Z,15.50
2023-05-02T07:17:23.595Z,15.56
2023-05-02T07:21:03.905Z,15.61
2023-05-02T07:24:41.775Z,15.70
2023-05-02T07:28:34.947Z,15.75
2023-05-02T07:31:59.614Z,15.84
2023-05-02T07:35:57.755Z,15.94
2023-05-02T07:39:42.655Z,16.02
2023-05-02T07:43:27.341Z,16.12
2023-05-02T07:46:52.637Z,16.19
2023-05-02T07:50:48.405Z,16.24
2023-05-02T07:54:31.401Z,16.31
2023-05-02T07:57:56.606Z,16.36
2023-05-02T08:01:52.770Z,16.42
2023-05-02T08:05:36.412Z,16.47
2023-05-02T08:09:20.214Z,16.52
2023-05-02T08:12:44.642Z,16.53
2023-05-02T08:16:43.493Z,16.56
2023-05-02T08:20:29.483Z,16.65
2023-05-02T08:23:58.327Z,16.66
2023-05-02T08:27:31.338Z,16.65
2023-05-02T08:31:09.090Z,16.73
2023-05-02T08:34:48.202Z,16.86
2023-05-02T08:38:44.115Z,16.97
2023-05-02T08:42:32.418Z,17.04
2023-05-02T08:46:17.081Z,17.09
2023-05-02T08:49:43.535Z,17.09
2023-05-02T08:53:20.585Z,17.09
2023-05-02T08:56:59.582Z,17.11
2023-05-02T09:00:42.795Z,17.13
2023-05-02T09:04:12.669Z,17.18
2023-05-02T09:08:09.197Z,17.24
2023-05-02T09:11:33.907Z,17.25
2023-05-02T09:15:30.101Z,17.38
2023-05-02T09:19:27.318Z,17.42
2023-05-02T09:36:39.357Z,18.07
2023-05-02T09:40:07.737Z,18.07
2023-05-02T09:43:42.153Z,18.14
2023-05-02T09:47:40.503Z,18.30
2023-05-02T09:51:17.306Z,18.43
2023-05-02T09:55:21.528Z,18.50
2023-05-02T09:58:45.961Z,18.50
2023-05-02T10:02:43.146Z,18.36
2023-05-02T10:10:26.626Z,18.77
2023-05-02T10:14:10.930Z,19.04
2023-05-02T10:17:57.778Z,19.04
2023-05-02T10:21:29.606Z,19.01
2023-05-02T10:25:03.353Z,18.87
2023-05-02T10:28:38.826Z,18.65
2023-05-02T10:32:37.116Z,18.51
2023-05-02T10:36:02.040Z,18.30
2023-05-02T10:39:39.576Z,18.26
2023-05-02T10:43:37.346Z,18.27
2023-05-02T10:47:17.824Z,18.35
2023-05-02T10:51:03.209Z,18.41
2023-05-02T10:54:27.539Z,18.44
2023-05-02T10:58:05.260Z,18.39
2023-05-02T11:01:43.053Z,18.35
2023-05-02T11:05:22.376Z,18.15
2023-05-02T11:09:27.671Z,18.04
2023-05-02T11:13:12.711Z,18.14
2023-05-02T11:17:04.971Z,18.38
2023-05-02T11:20:31.994Z,18.54
2023-05-02T11:24:39.906Z,18.70
2023-05-02T11:28:36.797Z,18.77
2023-05-02T11:32:20.275Z,18.76
2023-05-02T11:36:04.774Z,18.66
2023-05-02T11:39:29.666Z,18.64
2023-05-02T11:43:18.515Z,18.74
2023-05-02T11:46:44.862Z,18.79
2023-05-02T11:50:49.724Z,18.86
2023-05-02T11:54:33.792Z,18.52
2023-05-02T11:58:20.050Z,18.58
2023-05-02T12:01:53.670Z,18.48
2023-05-02T12:05:30.408Z,18.50
2023-05-02T12:09:13.936Z,18.63
2023-05-02T12:13:04.870Z,18.84
2023-05-02T12:16:29.373Z,18.58
2023-05-02T12:20:25.833Z,18.49
2023-05-02T12:23:50.292Z,18.52
2023-05-02T12:28:02.713Z,18.25
2023-05-02T12:31:52.070Z,18.00
2023-05-02T12:35:36.069Z,17.91
2023-05-02T12:39:37.403Z,17.81
2023-05-02T12:43:04.370Z,17.81
2023-05-02T12:46:59.321Z,17.80
2023-05-02T12:50:38.313Z,17.96
2023-05-02T12:54:04.558Z,17.98
2023-05-02T12:58:05.423Z,17.95
2023-05-02T13:01:30.099Z,17.83
2023-05-02T13:05:26.564Z,17.80
2023-05-02T13:08:50.853Z,17.66
2023-05-02T13:12:50.115Z,17.65
2023-05-02T13:16:35.794Z,17.66
2023-05-02T13:20:02.390Z,17.74
2023-05-02T13:23:58.212Z,17.82
2023-05-02T13:27:42.986Z,17.80
2023-05-02T13:31:27.073Z,17.90
2023-05-02T13:34:51.687Z,17.74
2023-05-02T13:38:48.095Z,17.79
2023-05-02T13:42:13.901Z,17.71
2023-05-02T13:46:12.332Z,17.74
2023-05-02T13:49:56.810Z,17.59
2023-05-02T13:53:40.857Z,17.72
2023-05-02T13:57:05.929Z,17.38
2023-05-02T14:01:01.968Z,16.95
2023-05-02T14:04:45.818Z,16.89
2023-05-02T14:08:11.945Z,16.99
2023-05-02T14:12:09.800Z,17.11
2023-05-02T14:15:37.835Z,17.15
2023-05-02T14:19:12.515Z,17.22
2023-05-02T14:23:09.213Z,17.19
2023-05-02T14:26:57.897Z,17.01
2023-05-02T14:30:24.992Z,17.07
2023-05-02T14:34:21.256Z,17.20
2023-05-02T14:37:47.125Z,17.04
2023-05-02T14:41:42.159Z,16.90
2023-05-02T14:45:25.997Z,16.62
2023-05-02T14:49:09.666Z,16.25
2023-05-02T14:52:55.461Z,16.07
2023-05-02T14:56:27.576Z,16.01
2023-05-02T15:00:20.587Z,15.95
2023-05-02T15:04:06.704Z,16.08
2023-05-02T15:07:38.283Z,15.95
2023-05-02T15:11:31.621Z,15.94
2023-05-02T15:14:57.269Z,16.12
2023-05-02T15:18:54.272Z,16.24
2023-05-02T15:22:18.838Z,16.31
2023-05-02T15:25:56.467Z,16.30
2023-05-02T15:29:53.509Z,16.33
2023-05-02T15:33:22.572Z,16.26
2023-05-02T15:37:16.759Z,16.30
2023-05-02T15:41:00.237Z,16.31
2023-05-02T15:44:43.939Z,16.28
2023-05-02T15:48:08.685Z,16.11
2023-05-02T15:52:05.188Z,16.01
2023-05-02T15:55:30.591Z,16.01
2023-05-02T15:59:26.477Z,15.97
2023-05-02T16:03:13.306Z,15.95
2023-05-02T16:06:38.349Z,15.92
2023-05-02T16:10:35.813Z,15.82
2023-05-02T16:14:23.126Z,15.73
2023-05-02T16:18:06.276Z,15.66
2023-05-02T16:21:31.126Z,15.55
2023-05-02T16:25:27.296Z,15.46
2023-05-02T16:28:51.787Z,15.38
2023-05-02T16:32:29.874Z,15.28
2023-05-02T16:36:28.258Z,15.23
2023-05-02T16:39:52.750Z,15.05
2023-05-02T16:43:30.326Z,14.94
2023-05-02T16:47:09.307Z,14.82
2023-05-02T16:50:45.956Z,14.67
2023-05-02T16:54:42.290Z,14.58
2023-05-02T16:58:28.037Z,14.41
2023-05-02T17:02:11.388Z,14.26
2023-05-02T17:05:35.954Z,14.19
2023-05-02T17:09:13.725Z,14.09
2023-05-02T17:13:11.102Z,14.05
2023-05-02T17:16:54.565Z,14.06
2023-05-02T17:20:20.509Z,13.97
2023-05-02T17:23:56.884Z,13.82
2023-05-02T17:27:34.458Z,13.59
2023-05-02T17:31:12.130Z,13.29
2023-05-02T17:35:11.558Z,13.14
2023-05-02T17:38:35.897Z,12.98
2023-05-02T17:42:32.507Z,12.85
2023-05-02T17:46:15.925Z,12.88
2023-05-02T17:49:40.382Z,12.94
2023-05-02T17:53:18.106Z,13.04
2023-05-02T17:56:57.056Z,13.12
2023-05-02T18:00:33.966Z,13.22
2023-05-02T18:04:14.982Z,13.25
2023-05-02T18:07:49.482Z,13.28
2023-05-02T18:11:27.231Z,13.30
2023-05-02T18:15:05.878Z,13.19
2023-05-02T18:18:41.990Z,13.12
2023-05-02T18:22:21.649Z,13.09
2023-05-02T18:26:16.008Z,13.04
2023-05-02T18:29:59.234Z,13.00
2023-05-02T18:33:23.862Z,12.92
2023-05-02T18:37:02.552Z,12.70
2023-05-02T18:40:58.027Z,12.46
2023-05-02T18:44:22.450Z,12.25
2023-05-02T18:48:00.326Z,12.25
2023-05-02T18:51:37.850Z,12.27
2023-05-02T18:55:34.498Z,12.19
2023-05-02T18:58:59.550Z,12.10
2023-05-02T19:02:56.530Z,12.17
2023-05-02T19:06:20.869Z,12.21
2023-05-02T19:10:17.310Z,12.02
2023-05-02T19:14:02.950Z,11.64
2023-05-02T19:17:27.799Z,11.27
2023-05-02T19:21:12.942Z,11.17
2023-05-02T19:25:03.369Z,11.30
2023-05-02T19:28:31.381Z,11.41
2023-05-02T19:32:07.162Z,11.47
2023-05-02T19:36:04.227Z,11.61
2023-05-02T19:39:28.844Z,11.72
2023-05-02T19:43:06.642Z,11.56
2023-05-02T19:46:47.276Z,11.33
2023-05-02T19:50:40.704Z,11.34
2023-05-02T19:54:24.565Z,11.40
2023-05-02T19:57:51.834Z,11.44
2023-05-02T20:01:29.272Z,11.32
2023-05-02T20:05:23.157Z,11.17
2023-05-02T20:09:10.362Z,11.04
2023-05-02T20:12:34.656Z,10.99
2023-05-02T20:16:31.713Z,11.03
2023-05-02T20:20:15.073Z,11.11
2023-05-02T20:23:43.557Z,11.00
2023-05-02T20:27:38.747Z,10.92
2023-05-02T20:31:22.330Z,10.90
2023-05-02T20:35:06.426Z,10.83
2023-05-02T20:38:30.703Z,10.84
2023-05-02T20:42:09.543Z,10.87
2023-05-02T20:45:46.714Z,10.89
2023-05-02T20:49:42.676Z,10.79
2023-05-02T20:53:07.142Z,10.62
2023-05-02T20:57:03.609Z,10.59
2023-05-02T21:00:28.989Z,10.52
2023-05-02T21:04:06.088Z,10.43
2023-05-02T21:08:05.854Z,10.31
2023-05-02T21:11:31.258Z,10.20
2023-05-02T21:15:27.149Z,10.19
2023-05-02T21:18:52.402Z,10.15
2023-05-02T21:22:29.326Z,10.15
2023-05-02T21:26:26.248Z,10.18
2023-05-02T21:30:10.049Z,10.17
2023-05-02T21:33:34.877Z,10.21
2023-05-02T21:37:12.318Z,10.20
2023-05-02T21:40:50.613Z,10.24
2023-05-02T21:44:46.553Z,10.29
2023-05-02T21:48:12.536Z,10.25
2023-05-02T21:52:08.766Z,10.22
2023-05-02T21:55:52.472Z,10.21
2023-05-02T21:59:35.892Z,10.20
2023-05-02T22:03:09.237Z,10.19
2023-05-02T22:06:38.155Z,10.16
2023-05-02T22:10:15.884Z,10.16
2023-05-02T22:14:13.077Z,10.13
2023-05-02T22:17:37.531Z,10.11
2023-05-02T22:21:15.985Z,10.16
2023-05-02T22:25:11.991Z,10.25
2023-05-02T22:28:55.406Z,10.22
2023-05-02T22:32:38.636Z,10.20
2023-05-02T22:36:22.028Z,10.27
2023-05-02T22:40:07.724Z,10.31
2023-05-02T22:43:32.727Z,10.21
2023-05-02T22:47:29.386Z,10.14
2023-05-02T22:51:12.893Z,10.09
2023-05-02T22:54:37.802Z,10.11
2023-05-02T22:58:15.535Z,10.13
2023-05-02T23:02:12.212Z,10.23
2023-05-02T23:05:55.405Z,10.30
2023-05-02T23:09:39.080Z,10.39
2023-05-02T23:13:03.584Z,10.43
2023-05-02T23:17:02.127Z,10.42
2023-05-02T23:20:45.475Z,10.46
2023-05-02T23:24:12.444Z,10.55
2023-05-02T23:27:47.365Z,10.56
2023-05-02T23:31:43.949Z,10.60
2023-05-02T23:35:11.073Z,10.56
2023-05-02T23:38:46.085Z,10.57
2023-05-02T23:42:42.813Z,10.50
2023-05-02T23:46:26.590Z,10.38
2023-05-02T23:49:50.888Z,10.32
2023-05-02T23:53:48.258Z,10.31
2023-05-02T23:57:31.587Z,10.29
